Terminal Aerodrome Forecast
Issued by NWS Springfield, MO

Home | Current Version | Previous Version | Text Only | Print | Product List | Glossary On
Versions: 1 2 3 4 5 6 7 8 9 10 11 12 13 14 15
000
FTUS43 KSGF 271120
TAFSGF
TAF
KSGF 271120Z 2712/2812 17012KT P6SM BKN045
     FM271600 17013KT P6SM VCSH BKN050
     FM272000 17010KT P6SM VCTS BKN035CB
     FM280300 16015KT P6SM BKN050=

USA.gov is the U.S. government's official web portal to all federal, state and local government web resources and services.